Altamont, Tennessee
Current Conditions -  °F | °C
As of 8:15 AM on Thursday 29 Jan 2015 (Local Time) from KRNC Reporting Station
Overcast Overcast  
Wind Chill: 43°   Ceiling: 8500
Heat Index: 48°   Visibility: 10mi
Dew Point: 32°   Wind: 14mph
Humidity: 54%   Direction: 200°SSW
Pressure: 30.09"   Gusts: NA
Location:  35.43°N, 85.72°W
Report Text: KRNC 291415Z AUTO 20012KT 10SM OVC085 09/00 A3009 RMK
Loading
Personal Weather Stations






























Interactive Weather Map New forecast layout! Learn more

10-Day Weather Forecast

Advertisements
Track Severe Weather on mobile